createdAt,value
2019-02-18T00:00:58.411Z,99866.90
2019-02-18T00:07:02.978Z,99871.92
2019-02-18T00:13:07.579Z,99873.88
2019-02-18T00:19:12.133Z,99866.82
2019-02-18T00:25:16.694Z,99869.42
2019-02-18T00:31:21.252Z,99866.92
2019-02-18T00:37:25.823Z,99867.03
2019-02-18T00:43:30.359Z,99866.19
2019-02-18T00:49:34.893Z,99869.69
2019-02-18T00:55:39.466Z,99864.05
2019-02-18T01:01:44.089Z,99854.84
2019-02-18T01:07:48.703Z,99861.08
2019-02-18T01:13:53.247Z,99861.20
2019-02-18T01:19:57.799Z,99861.23
2019-02-18T01:26:02.350Z,99861.28
2019-02-18T01:32:06.978Z,99857.86
2019-02-18T01:38:11.589Z,99853.30
2019-02-18T01:44:16.144Z,99839.73
2019-02-18T01:50:20.701Z,99837.27
2019-02-18T01:56:25.238Z,99832.55
2019-02-18T02:02:29.785Z,99832.36
2019-02-18T02:08:34.414Z,99832.55
2019-02-18T02:14:38.988Z,99842.50
2019-02-18T02:20:43.544Z,99826.59
2019-02-18T02:26:50.751Z,99826.28
2019-02-18T02:32:55.629Z,99824.68
2019-02-18T02:39:00.262Z,99826.20
2019-02-18T02:45:06.302Z,99816.05
2019-02-18T02:51:10.863Z,99815.56
2019-02-18T02:57:15.411Z,99811.23
2019-02-18T03:03:19.962Z,99809.07
2019-02-18T03:09:24.502Z,99806.17
2019-02-18T03:15:29.052Z,99811.64
2019-02-18T03:21:33.770Z,99813.65
2019-02-18T03:27:38.316Z,99810.39
2019-02-18T03:33:59.519Z,99808.91
2019-02-18T03:40:04.410Z,99814.41
2019-02-18T03:46:08.955Z,99807.22
2019-02-18T03:52:13.502Z,99806.87
2019-02-18T03:58:18.115Z,99822.02
2019-02-18T04:04:23.777Z,99815.19
2019-02-18T04:10:28.342Z,99816.83
2019-02-18T04:16:32.896Z,99813.12
2019-02-18T04:22:37.441Z,99806.59
2019-02-18T04:28:41.995Z,99810.20
2019-02-18T04:34:46.553Z,99808.35
2019-02-18T04:40:51.102Z,99812.52
2019-02-18T04:46:55.647Z,99814.95
2019-02-18T04:53:00.186Z,99823.58
2019-02-18T04:59:04.748Z,99810.37
2019-02-18T05:05:10.796Z,99809.27
2019-02-18T05:11:15.349Z,99811.19
2019-02-18T05:17:19.904Z,99808.89
2019-02-18T05:23:24.451Z,99798.30
2019-02-18T05:29:29.030Z,99802.36
2019-02-18T05:35:33.584Z,99800.25
2019-02-18T05:41:38.135Z,99791.38
2019-02-18T05:47:42.707Z,99789.23
2019-02-18T05:53:47.258Z,99799.55
2019-02-18T05:59:51.825Z,99797.33
2019-02-18T06:05:56.455Z,99800.55
2019-02-18T06:12:01.002Z,99799.86
2019-02-18T06:18:05.608Z,99800.91
2019-02-18T06:24:11.214Z,99814.25
2019-02-18T06:30:15.735Z,99794.58
2019-02-18T06:36:20.282Z,99800.59
2019-02-18T06:42:25.827Z,99805.35
2019-02-18T06:48:34.101Z,99803.65
2019-02-18T06:54:38.986Z,99810.11
2019-02-18T07:00:58.451Z,99826.64
2019-02-18T07:07:04.661Z,99844.27
2019-02-18T07:13:09.192Z,99831.14
2019-02-18T07:19:13.843Z,99832.03
2019-02-18T07:25:18.358Z,99834.88
2019-02-18T07:31:22.906Z,99824.40
2019-02-18T07:37:40.396Z,99825.93
2019-02-18T07:43:44.936Z,99820.02
2019-02-18T07:49:49.509Z,99816.32
2019-02-18T07:55:54.059Z,99808.25
2019-02-18T08:01:58.631Z,99805.75
2019-02-18T08:08:03.180Z,99815.70
2019-02-18T08:14:07.736Z,99822.14
2019-02-18T08:20:12.752Z,99821.34
2019-02-18T08:26:17.367Z,99821.38
2019-02-18T08:32:21.919Z,99819.24
2019-02-18T08:38:26.487Z,99831.19
2019-02-18T08:44:31.043Z,99826.33
2019-02-18T08:50:35.586Z,99813.72
2019-02-18T08:56:40.136Z,99820.97
2019-02-18T09:02:44.754Z,99819.16
2019-02-18T09:08:49.375Z,99808.45
2019-02-18T09:14:53.931Z,99809.69
2019-02-18T09:20:58.499Z,99802.70
2019-02-18T09:27:04.796Z,99791.05
2019-02-18T09:33:09.637Z,99785.80
2019-02-18T09:39:18.013Z,99785.16
2019-02-18T09:45:22.560Z,99789.31
2019-02-18T09:51:27.108Z,99785.66
2019-02-18T09:57:32.555Z,99785.09
2019-02-18T10:03:37.116Z,99772.59
2019-02-18T10:09:41.666Z,99766.27
2019-02-18T10:15:47.207Z,99767.28
2019-02-18T10:21:51.768Z,99758.28
2019-02-18T10:27:56.298Z,99746.23
2019-02-18T10:34:00.846Z,99742.36
2019-02-18T10:40:08.097Z,99729.59
2019-02-18T10:46:12.653Z,99726.77
2019-02-18T10:52:22.483Z,99724.09
2019-02-18T10:58:26.319Z,99729.11
2019-02-18T11:04:30.882Z,99717.45
2019-02-18T11:10:35.442Z,99703.42
2019-02-18T11:16:39.992Z,99692.80
2019-02-18T11:22:44.550Z,99691.83
2019-02-18T11:28:49.090Z,99683.65
2019-02-18T11:34:53.641Z,99672.05
2019-02-18T11:40:58.202Z,99663.58
2019-02-18T11:47:02.861Z,99655.89
2019-02-18T11:53:07.415Z,99645.75
2019-02-18T11:59:12.013Z,99635.19
2019-02-18T12:05:16.739Z,99620.91
2019-02-18T12:11:21.376Z,99615.94
2019-02-18T12:17:28.165Z,99610.95
2019-02-18T12:23:32.709Z,99603.08
2019-02-18T12:29:37.892Z,99603.13
2019-02-18T12:35:42.457Z,99594.50
2019-02-18T12:41:48.988Z,99581.03
2019-02-18T12:47:53.377Z,99570.55
2019-02-18T12:54:04.796Z,99554.45
2019-02-18T13:00:09.202Z,99542.07
2019-02-18T13:06:13.945Z,99547.75
2019-02-18T13:12:18.711Z,99536.67
2019-02-18T13:18:23.334Z,99517.78
2019-02-18T13:24:28.305Z,99509.70
2019-02-18T13:30:32.925Z,99504.16
2019-02-18T13:36:37.974Z,99498.09
2019-02-18T13:42:42.614Z,99492.05
2019-02-18T13:48:47.184Z,99478.38
2019-02-18T13:54:51.826Z,99475.08
2019-02-18T14:01:16.229Z,99471.54
2019-02-18T14:07:40.251Z,99464.27
2019-02-18T14:14:04.362Z,99455.41
2019-02-18T14:20:42.712Z,99450.66
2019-02-18T14:27:13.418Z,99451.75
2019-02-18T14:33:37.495Z,99441.69
2019-02-18T14:39:43.607Z,99443.56
2019-02-18T14:45:48.511Z,99438.08
2019-02-18T14:51:53.247Z,99436.84
2019-02-18T14:57:57.961Z,99433.84
2019-02-18T15:04:02.627Z,99423.91
2019-02-18T15:10:11.445Z,99427.54
2019-02-18T15:16:16.158Z,99426.23
2019-02-18T15:22:20.790Z,99426.28
2019-02-18T15:28:25.431Z,99420.92
2019-02-18T15:34:30.856Z,99417.66
2019-02-18T15:40:36.124Z,99408.34
2019-02-18T15:46:41.011Z,99403.76
2019-02-18T15:52:45.679Z,99387.55
2019-02-18T15:58:50.383Z,99384.34
2019-02-18T16:04:55.134Z,99387.14
2019-02-18T16:11:00.196Z,99381.13
2019-02-18T16:17:05.108Z,99383.33
2019-02-18T16:23:09.668Z,99382.36
2019-02-18T16:29:14.378Z,99379.60
2019-02-18T16:35:23.087Z,99375.73
2019-02-18T16:41:28.058Z,99362.55
2019-02-18T16:47:33.066Z,99364.38
2019-02-18T16:53:37.709Z,99364.59
2019-02-18T16:59:42.303Z,99366.64
2019-02-18T17:05:46.862Z,99367.86
2019-02-18T17:11:52.296Z,99363.58
2019-02-18T17:17:57.205Z,99353.02
2019-02-18T17:24:02.344Z,99355.35
2019-02-18T17:30:11.581Z,99342.48
2019-02-18T17:36:16.239Z,99333.00
2019-02-18T17:42:21.040Z,99328.51
2019-02-18T17:48:25.737Z,99331.48
2019-02-18T17:54:30.595Z,99328.97
2019-02-18T18:00:36.931Z,99340.90
2019-02-18T18:06:41.499Z,99339.91
2019-02-18T18:12:47.892Z,99329.15
2019-02-18T18:18:52.448Z,99332.75
2019-02-18T18:24:57.068Z,99320.17
2019-02-18T18:31:02.730Z,99321.64
2019-02-18T18:37:07.426Z,99320.70
2019-02-18T18:43:15.687Z,99320.14
2019-02-18T18:49:20.561Z,99316.59
2019-02-18T18:55:25.229Z,99317.55
2019-02-18T19:01:30.163Z,99329.34
2019-02-18T19:07:34.846Z,99328.48
2019-02-18T19:13:42.146Z,99333.34
2019-02-18T19:19:46.097Z,99334.20
2019-02-18T19:25:50.743Z,99335.41
2019-02-18T19:31:55.370Z,99339.24
2019-02-18T19:38:00.451Z,99347.44
2019-02-18T19:44:05.175Z,99347.19
2019-02-18T19:50:10.188Z,99346.14
2019-02-18T19:56:14.822Z,99354.30
2019-02-18T20:02:19.553Z,99360.77
2019-02-18T20:08:24.496Z,99368.39
2019-02-18T20:14:32.245Z,99374.02
2019-02-18T20:20:36.883Z,99366.17
2019-02-18T20:26:41.444Z,99363.81
2019-02-18T20:32:46.001Z,99352.95
2019-02-18T20:38:50.562Z,99345.93
2019-02-18T20:44:55.189Z,99353.19
2019-02-18T20:51:00.084Z,99348.91
2019-02-18T20:57:06.413Z,99339.35
2019-02-18T21:03:11.050Z,99336.64
2019-02-18T21:09:15.934Z,99324.55
2019-02-18T21:15:20.882Z,99312.30
2019-02-18T21:21:25.436Z,99310.09
2019-02-18T21:27:31.443Z,99317.16
2019-02-18T21:33:36.156Z,99316.05
2019-02-18T21:39:43.443Z,99318.19
2019-02-18T21:45:48.062Z,99315.84
2019-02-18T21:51:53.691Z,99309.92
2019-02-18T21:57:58.360Z,99309.83
2019-02-18T22:04:03.145Z,99319.65
2019-02-18T22:10:09.933Z,99316.75
2019-02-18T22:16:14.559Z,99310.77
2019-02-18T22:22:19.135Z,99310.83
2019-02-18T22:28:23.728Z,99309.67
2019-02-18T22:34:28.367Z,99303.31
2019-02-18T22:40:33.184Z,99301.58
2019-02-18T22:46:40.988Z,99305.55
2019-02-18T22:52:45.874Z,99314.77
2019-02-18T22:58:50.569Z,99312.44
2019-02-18T23:04:55.227Z,99308.09
2019-02-18T23:11:00.438Z,99306.93
2019-02-18T23:17:05.416Z,99307.81
2019-02-18T23:23:10.127Z,99305.82
2019-02-18T23:29:14.740Z,99304.48
2019-02-18T23:35:19.637Z,99294.49
2019-02-18T23:41:24.410Z,99296.81
2019-02-18T23:47:29.449Z,99295.01
2019-02-18T23:53:34.765Z,99287.89
2019-02-18T23:59:39.396Z,99293.72
